Time;durP1;ratioP1;P1;durP2;ratioP2;P2;SDS_P1;SDS_P2;PMS_P1;PMS_P2;Temp;Humidity;BMP_temperature;BMP_pressure;BME280_temperature;BME280_humidity;BME280_pressure;Samples;Min_cycle;Max_cycle;Signal;HPM_P1;HPM_P2
2023/08/07 00:01:31;;;;;;;0.60;0.60;;;;;;;13.66;88.51;100686.00;5186179;28;20456;-88
2023/08/07 00:04:21;;;;;;;0.57;0.47;;;;;;;13.73;87.76;100691.91;5196949;28;20041;-87
2023/08/07 00:07:12;;;;;;;1.08;0.93;;;;;;;13.74;87.68;100688.34;5201383;28;20032;-88
2023/08/07 00:10:04;;;;;;;3.25;1.15;;;;;;;13.76;87.36;100694.38;5185174;28;20025;-88
2023/08/07 00:12:54;;;;;;;0.57;0.57;;;;;;;13.77;87.37;100693.47;5186569;28;20075;-87
2023/08/07 00:15:45;;;;;;;0.20;0.20;;;;;;;13.75;87.81;100690.06;5190565;28;20417;-88
2023/08/07 00:18:36;;;;;;;0.60;0.60;;;;;;;13.69;87.95;100695.56;5193067;28;20112;-88
2023/08/07 00:21:27;;;;;;;0.25;0.25;;;;;;;13.81;87.41;100688.94;5207898;28;20418;-88
2023/08/07 00:24:17;;;;;;;0.30;0.30;;;;;;;13.81;87.20;100688.94;5192314;28;20694;-87
2023/08/07 00:27:10;;;;;;;0.30;0.30;;;;;;;13.71;88.16;100692.88;5202997;28;20024;-87
2023/08/07 00:30:01;;;;;;;0.55;0.55;;;;;;;13.66;88.63;100687.81;5209249;28;20519;-88
2023/08/07 00:32:51;;;;;;;0.60;0.60;;;;;;;13.63;89.06;100695.81;5206677;28;20064;-88
2023/08/07 00:35:42;;;;;;;0.20;0.20;;;;;;;13.74;87.92;100693.63;5201795;28;20071;-90
2023/08/07 00:38:33;;;;;;;0.25;0.25;;;;;;;13.60;89.71;100688.91;5202561;28;20036;-87
2023/08/07 00:41:24;;;;;;;0.40;0.40;;;;;;;13.58;89.42;100681.97;5201694;28;20037;-86
2023/08/07 00:44:15;;;;;;;0.20;0.20;;;;;;;13.59;88.83;100691.59;5205541;28;20109;-90
2023/08/07 00:47:06;;;;;;;1.30;0.52;;;;;;;13.46;90.50;100689.44;5199674;28;20027;-88
2023/08/07 00:49:58;;;;;;;0.15;0.15;;;;;;;13.48;89.96;100692.00;5211460;28;20033;-88
2023/08/07 00:52:49;;;;;;;1.25;0.63;;;;;;;13.52;89.56;100685.72;5198170;28;20039;-90
2023/08/07 00:55:41;;;;;;;0.32;0.32;;;;;;;13.54;89.32;100699.69;5191856;28;20018;-88
2023/08/07 00:58:33;;;;;;;0.30;0.30;;;;;;;13.67;88.30;100702.69;5197382;28;20084;-89
2023/08/07 01:01:25;;;;;;;0.40;0.40;;;;;;;13.66;88.32;100704.47;5194647;28;20096;-88
2023/08/07 01:04:16;;;;;;;0.73;0.63;;;;;;;13.59;89.12;100704.78;5195017;28;20036;-88
2023/08/07 01:07:06;;;;;;;0.77;0.70;;;;;;;13.38;89.62;100705.56;5196154;28;20033;-88
2023/08/07 01:10:02;;;;;;;1.50;0.70;;;;;;;13.46;89.70;100707.91;5199723;28;20390;-90
2023/08/07 01:13:08;;;;;;;0.55;0.55;;;;;;;13.54;89.10;100711.09;5201903;28;20033;-87
2023/08/07 01:16:07;;;;;;;1.92;0.85;;;;;;;13.63;88.27;100711.63;5193557;28;20420;-88
2023/08/07 01:19:00;;;;;;;0.52;0.52;;;;;;;13.47;88.91;100714.03;5190094;28;20036;-87
2023/08/07 01:22:27;;;;;;;0.75;0.75;;;;;;;13.53;89.07;100706.72;5188920;28;20120;-87
2023/08/07 01:25:17;;;;;;;0.95;0.88;;;;;;;13.61;88.03;100711.72;5105737;29;20114;-88
2023/08/07 01:28:24;;;;;;;1.23;1.23;;;;;;;13.50;88.40;100708.63;5189525;28;20401;-88
2023/08/07 01:31:19;;;;;;;0.75;0.75;;;;;;;13.47;87.96;100721.94;5189510;28;20025;-87
2023/08/07 01:34:13;;;;;;;0.57;0.57;;;;;;;13.50;88.30;100717.41;5194247;28;20034;-88
2023/08/07 01:37:07;;;;;;;0.30;0.30;;;;;;;13.57;88.10;100702.19;5190407;28;20022;-87
2023/08/07 01:40:00;;;;;;;2.85;1.42;;;;;;;13.70;87.25;100705.19;5187979;28;20029;-90
2023/08/07 01:42:51;;;;;;;1.20;1.10;;;;;;;13.45;88.52;100713.22;5192435;28;20051;-87
2023/08/07 01:45:41;;;;;;;0.60;0.60;;;;;;;13.53;87.76;100708.53;5197192;28;20018;-89
2023/08/07 01:48:32;;;;;;;4.15;2.75;;;;;;;13.60;87.16;100706.47;5207602;28;20032;-87
2023/08/07 01:51:23;;;;;;;0.50;0.50;;;;;;;13.48;87.67;100711.34;5202158;28;20183;-88
2023/08/07 01:54:14;;;;;;;0.50;0.50;;;;;;;13.54;87.02;100716.34;5195632;28;20083;-88
2023/08/07 01:57:05;;;;;;;3.63;0.93;;;;;;;13.56;86.89;100712.81;5193316;28;20543;-87
2023/08/07 01:59:56;;;;;;;2.05;1.95;;;;;;;13.47;87.72;100712.25;5205730;28;20029;-89
2023/08/07 02:02:47;;;;;;;0.40;0.40;;;;;;;13.49;87.66;100736.78;5186869;28;20090;-87
2023/08/07 02:05:38;;;;;;;0.32;0.32;;;;;;;13.46;88.00;100725.50;5186509;28;20083;-90
2023/08/07 02:08:29;;;;;;;1.08;1.08;;;;;;;13.56;88.16;100733.91;5186815;28;20020;-88
2023/08/07 02:11:20;;;;;;;0.73;0.73;;;;;;;13.47;88.67;100732.50;5190634;28;20083;-87
2023/08/07 02:14:11;;;;;;;7.32;2.83;;;;;;;13.44;88.95;100741.34;5191758;28;20033;-90
2023/08/07 02:17:01;;;;;;;0.50;0.50;;;;;;;13.47;88.62;100743.03;5191489;28;20026;-88
2023/08/07 02:19:53;;;;;;;0.22;0.22;;;;;;;13.38;89.38;100739.84;5191300;28;20327;-88
2023/08/07 02:22:43;;;;;;;0.40;0.40;;;;;;;13.37;89.19;100739.84;5190904;28;20091;-87
2023/08/07 02:25:34;;;;;;;2.45;2.25;;;;;;;13.30;89.70;100741.00;5189148;28;20028;-88
2023/08/07 02:28:25;;;;;;;0.65;0.60;;;;;;;13.41;89.04;100738.84;5192552;28;20032;-88
2023/08/07 02:31:16;;;;;;;0.50;0.50;;;;;;;13.48;88.62;100739.44;5188080;28;20017;-87
2023/08/07 02:34:06;;;;;;;0.52;0.52;;;;;;;13.38;88.96;100746.84;5200935;28;20039;-89
2023/08/07 02:36:58;;;;;;;0.75;0.75;;;;;;;13.45;88.81;100740.44;5189547;28;20499;-88
2023/08/07 02:39:49;;;;;;;0.40;0.40;;;;;;;13.41;89.28;100741.50;5186473;28;20028;-89
2023/08/07 02:42:40;;;;;;;0.40;0.40;;;;;;;13.52;88.41;100746.34;5192860;28;20025;-89
2023/08/07 02:45:31;;;;;;;0.30;0.30;;;;;;;13.61;87.87;100745.09;5182374;28;20032;-88
2023/08/07 02:48:21;;;;;;;2.45;1.25;;;;;;;13.44;88.72;100748.41;5192771;28;20067;-87
2023/08/07 02:51:12;;;;;;;0.55;0.55;;;;;;;13.46;89.05;100746.59;5202550;28;20057;-90
2023/08/07 02:54:03;;;;;;;4.38;0.75;;;;;;;13.45;88.67;100739.59;5192092;28;20045;-88
2023/08/07 02:56:54;;;;;;;5.82;0.77;;;;;;;13.52;88.24;100743.69;5224769;28;20602;-90
2023/08/07 02:59:44;;;;;;;0.95;0.95;;;;;;;13.48;88.52;100740.34;5204929;28;20040;-87
2023/08/07 03:02:35;;;;;;;0.50;0.50;;;;;;;13.43;88.16;100736.16;5190411;28;20047;-88
2023/08/07 03:05:26;;;;;;;0.30;0.30;;;;;;;13.36;88.53;100736.38;5193184;28;20033;-88
2023/08/07 03:08:17;;;;;;;0.30;0.30;;;;;;;13.40;88.33;100742.41;5191579;28;20086;-87
2023/08/07 03:11:08;;;;;;;1.30;0.73;;;;;;;13.34;88.20;100743.47;5215452;28;20041;-88
2023/08/07 03:13:59;;;;;;;0.30;0.30;;;;;;;13.31;88.17;100737.44;5192831;28;20025;-89
2023/08/07 03:16:50;;;;;;;0.30;0.30;;;;;;;13.30;88.23;100748.91;5188743;28;20083;-89
2023/08/07 03:19:43;;;;;;;0.40;0.40;;;;;;;13.22;88.87;100743.94;5171457;28;20072;-88
2023/08/07 03:22:34;;;;;;;5.72;0.95;;;;;;;13.22;88.92;100739.50;5188090;28;20514;-89
2023/08/07 03:25:24;;;;;;;0.43;0.43;;;;;;;13.25;88.56;100748.22;5205917;28;20731;-88
2023/08/07 03:28:16;;;;;;;0.32;0.32;;;;;;;13.23;88.90;100743.88;5183221;28;20028;-88
2023/08/07 03:31:07;;;;;;;1.75;0.98;;;;;;;13.37;87.64;100745.13;5203215;28;20481;-89
2023/08/07 03:33:58;;;;;;;0.30;0.30;;;;;;;13.37;88.63;100746.00;5184479;28;20046;-87
2023/08/07 03:36:49;;;;;;;1.85;0.50;;;;;;;13.45;87.49;100752.78;5216387;28;20101;-88
2023/08/07 03:39:39;;;;;;;0.35;0.35;;;;;;;13.35;87.60;100754.84;5189333;28;20449;-88
2023/08/07 03:42:30;;;;;;;0.30;0.30;;;;;;;13.29;88.28;100752.44;5190945;28;20139;-88
2023/08/07 03:45:21;;;;;;;4.10;1.40;;;;;;;13.29;88.41;100747.19;5191920;28;20036;-87
2023/08/07 03:48:12;;;;;;;0.30;0.30;;;;;;;13.32;88.34;100753.19;5188674;28;20071;-88
2023/08/07 03:51:10;;;;;;;0.30;0.30;;;;;;;13.37;88.19;100755.66;5186758;28;20025;-89
2023/08/07 03:54:01;;;;;;;0.38;0.38;;;;;;;13.20;89.72;100766.84;5197499;28;20113;-89
2023/08/07 03:56:52;;;;;;;1.13;0.68;;;;;;;13.21;89.62;100766.78;5182881;28;20025;-89
2023/08/07 03:59:43;;;;;;;0.60;0.47;;;;;;;13.32;88.81;100760.25;5198095;28;20031;-89
2023/08/07 04:02:33;;;;;;;0.82;0.68;;;;;;;13.23;88.83;100766.72;5183124;28;20636;-87
2023/08/07 04:05:24;;;;;;;3.72;1.52;;;;;;;13.25;89.73;100748.22;5203883;28;20068;-88
2023/08/07 04:08:15;;;;;;;0.40;0.40;;;;;;;13.17;90.45;100759.03;5199932;28;20033;-88
2023/08/07 04:11:07;;;;;;;0.50;0.50;;;;;;;13.10;91.24;100754.94;5193864;28;20107;-88
2023/08/07 04:13:58;;;;;;;0.55;0.55;;;;;;;13.22;89.99;100757.97;5202295;28;20033;-88
2023/08/07 04:16:49;;;;;;;0.35;0.35;;;;;;;13.17;90.37;100757.28;5188261;28;20075;-88
2023/08/07 04:19:40;;;;;;;0.43;0.43;;;;;;;13.01;91.35;100756.13;5213765;28;20083;-88
2023/08/07 04:22:30;;;;;;;1.00;0.60;;;;;;;13.04;91.60;100761.28;5198293;28;20093;-88
2023/08/07 04:25:21;;;;;;;1.63;1.38;;;;;;;13.10;90.94;100755.78;5189725;28;20040;-90
2023/08/07 04:28:12;;;;;;;1.50;1.20;;;;;;;13.18;90.34;100768.66;5193165;28;20029;-91
2023/08/07 04:31:03;;;;;;;0.45;0.45;;;;;;;13.22;89.38;100771.13;5184968;28;20025;-88
2023/08/07 04:33:54;;;;;;;0.50;0.50;;;;;;;13.08;90.76;100768.16;5187031;28;20025;-87
2023/08/07 04:36:44;;;;;;;0.30;0.30;;;;;;;13.26;90.04;100760.50;5190056;28;20113;-88
2023/08/07 04:39:36;;;;;;;0.60;0.45;;;;;;;13.05;90.72;100763.88;5198956;28;20041;-89
2023/08/07 04:42:27;;;;;;;0.63;0.63;;;;;;;13.09;91.22;100775.16;5188816;28;20385;-89
2023/08/07 04:45:18;;;;;;;0.82;0.73;;;;;;;13.14;90.07;100773.19;5189563;28;20439;-89
2023/08/07 04:48:09;;;;;;;0.40;0.40;;;;;;;13.06;90.93;100772.63;5206964;28;20030;-87
2023/08/07 04:51:00;;;;;;;0.80;0.65;;;;;;;12.99;91.24;100765.84;5189448;28;20067;-89
2023/08/07 04:53:50;;;;;;;0.85;0.80;;;;;;;12.98;91.44;100766.78;5194187;28;20041;-88
2023/08/07 04:56:44;;;;;;;0.88;0.88;;;;;;;13.10;90.59;100760.19;5199176;28;20044;-88
2023/08/07 04:59:35;;;;;;;0.40;0.40;;;;;;;13.04;90.40;100767.41;5179076;28;20107;-89
2023/08/07 05:02:26;;;;;;;0.20;0.20;;;;;;;13.09;89.76;100769.00;5194885;28;20033;-87
2023/08/07 05:05:20;;;;;;;0.20;0.20;;;;;;;13.02;89.97;100771.00;5195782;28;20597;-88
2023/08/07 05:08:11;;;;;;;0.40;0.40;;;;;;;13.04;89.23;100771.81;5206629;28;20033;-89
2023/08/07 05:11:02;;;;;;;0.40;0.40;;;;;;;13.03;89.23;100773.59;5200401;28;20240;-88
2023/08/07 05:13:52;;;;;;;0.30;0.30;;;;;;;13.09;88.58;100777.78;5195532;28;20172;-90
2023/08/07 05:16:43;;;;;;;0.60;0.57;;;;;;;12.94;89.22;100779.19;5194691;28;20369;-87
2023/08/07 05:19:34;;;;;;;0.20;0.20;;;;;;;13.03;88.53;100777.97;5182154;28;20032;-88
2023/08/07 05:22:25;;;;;;;3.53;1.60;;;;;;;13.07;87.81;100774.34;5188189;28;20100;-88
2023/08/07 05:25:16;;;;;;;0.50;0.50;;;;;;;12.97;88.27;100772.94;5195555;28;20056;-85
2023/08/07 05:28:07;;;;;;;0.30;0.30;;;;;;;13.12;87.76;100771.53;5185693;28;20443;-85
2023/08/07 05:30:58;;;;;;;0.57;0.57;;;;;;;12.97;87.37;100765.94;5189096;28;20036;-85
2023/08/07 05:33:49;;;;;;;0.75;0.75;;;;;;;13.13;87.43;100776.75;5195538;28;20029;-86
2023/08/07 05:36:41;;;;;;;0.30;0.30;;;;;;;13.24;87.10;100776.34;5198489;28;20025;-85
2023/08/07 05:39:32;;;;;;;0.68;0.68;;;;;;;13.18;87.01;100779.22;5192851;28;20041;-86
2023/08/07 05:42:23;;;;;;;1.40;1.35;;;;;;;13.14;87.04;100793.44;5207856;28;20033;-85
2023/08/07 05:45:14;;;;;;;1.15;0.68;;;;;;;13.12;87.76;100790.81;5185300;28;20025;-86
2023/08/07 05:48:06;;;;;;;2.45;1.75;;;;;;;13.10;86.83;100792.66;5198884;28;20067;-86
2023/08/07 05:50:57;;;;;;;0.50;0.50;;;;;;;13.21;86.08;100800.19;5184501;28;20085;-86
2023/08/07 05:53:48;;;;;;;0.20;0.20;;;;;;;13.17;85.97;100794.16;5210325;28;20074;-85
2023/08/07 05:56:41;;;;;;;1.00;0.98;;;;;;;13.20;86.32;100803.72;5195372;28;20081;-85
2023/08/07 05:59:34;;;;;;;1.02;1.02;;;;;;;13.16;86.09;100792.44;5177599;28;20032;-86
2023/08/07 06:02:25;;;;;;;0.30;0.30;;;;;;;13.10;86.47;100797.91;5214126;28;20037;-86
2023/08/07 06:05:16;;;;;;;4.50;1.08;;;;;;;13.19;86.34;100797.59;5204223;28;20027;-85
2023/08/07 06:08:07;;;;;;;0.40;0.40;;;;;;;13.27;86.73;100799.06;5191186;28;20022;-86
2023/08/07 06:10:57;;;;;;;0.30;0.30;;;;;;;13.21;86.12;100803.66;5186190;28;20033;-86
2023/08/07 06:13:49;;;;;;;3.42;1.33;;;;;;;13.30;86.49;100813.03;5198763;28;20043;-86
2023/08/07 06:16:39;;;;;;;0.20;0.20;;;;;;;13.23;86.33;100807.09;5189494;28;20055;-88
2023/08/07 06:19:30;;;;;;;0.30;0.30;;;;;;;13.20;86.42;100811.63;5189732;28;20179;-87
2023/08/07 06:22:21;;;;;;;0.50;0.50;;;;;;;13.25;86.33;100808.84;5187728;28;20037;-87
2023/08/07 06:25:12;;;;;;;0.50;0.50;;;;;;;13.13;87.16;100816.25;5192943;28;20311;-87
2023/08/07 06:28:03;;;;;;;0.40;0.40;;;;;;;13.05;88.18;100820.94;5195149;28;20032;-87
2023/08/07 06:31:00;;;;;;;0.30;0.30;;;;;;;13.09;88.12;100827.84;5188424;28;20033;-87
2023/08/07 06:33:51;;;;;;;0.50;0.50;;;;;;;13.18;87.57;100822.22;5186406;28;20037;-86
2023/08/07 06:36:42;;;;;;;0.25;0.25;;;;;;;13.20;87.62;100823.03;5195820;28;20084;-87
2023/08/07 06:39:33;;;;;;;0.40;0.40;;;;;;;13.30;87.00;100838.50;5193036;28;20403;-87
2023/08/07 06:42:23;;;;;;;0.40;0.40;;;;;;;13.38;86.31;100833.81;5181783;28;20325;-86
2023/08/07 06:45:14;;;;;;;0.28;0.28;;;;;;;13.17;87.78;100853.88;5193366;28;20524;-86
2023/08/07 06:48:05;;;;;;;0.30;0.30;;;;;;;13.12;88.45;100854.06;5183756;28;20078;-87
2023/08/07 06:50:56;;;;;;;0.52;0.52;;;;;;;13.13;88.01;100847.03;5195372;28;20566;-86
2023/08/07 06:53:46;;;;;;;0.35;0.35;;;;;;;13.22;88.43;100859.88;5181233;28;20088;-87
2023/08/07 06:56:40;;;;;;;0.30;0.30;;;;;;;13.30;87.67;100855.19;5206501;28;20054;-86
2023/08/07 06:59:31;;;;;;;0.55;0.55;;;;;;;13.27;88.49;100867.56;5176292;28;20037;-86
2023/08/07 07:02:22;;;;;;;0.40;0.40;;;;;;;13.16;89.15;100860.94;5189224;28;20041;-86
2023/08/07 07:05:13;;;;;;;0.57;0.57;;;;;;;13.20;89.39;100865.16;5199232;28;20519;-88
2023/08/07 07:08:04;;;;;;;0.47;0.47;;;;;;;13.29;89.32;100871.03;5180992;28;20176;-88
2023/08/07 07:10:57;;;;;;;0.73;0.73;;;;;;;13.17;89.90;100870.56;5202787;28;20090;-88
2023/08/07 07:13:48;;;;;;;0.28;0.28;;;;;;;13.20;90.36;100880.97;5191669;28;20029;-87
2023/08/07 07:16:38;;;;;;;0.28;0.28;;;;;;;13.35;88.79;100887.50;5177666;28;20360;-89
2023/08/07 07:19:29;;;;;;;3.13;1.65;;;;;;;13.26;90.28;100887.81;5206188;28;20047;-88
2023/08/07 07:22:20;;;;;;;0.32;0.32;;;;;;;13.38;90.11;100886.50;5179886;28;20443;-87
2023/08/07 07:25:11;;;;;;;6.32;1.63;;;;;;;13.43;89.68;100879.31;5180957;28;20067;-87
2023/08/07 07:28:02;;;;;;;0.80;0.80;;;;;;;13.47;89.58;100877.47;5195074;28;20120;-88
2023/08/07 07:30:52;;;;;;;6.13;1.27;;;;;;;13.46;88.69;100895.03;5195926;28;20238;-88
2023/08/07 07:33:43;;;;;;;0.30;0.30;;;;;;;13.41;89.79;100888.19;5192402;28;20029;-86
2023/08/07 07:36:34;;;;;;;0.50;0.50;;;;;;;13.47;89.60;100896.75;5201308;28;20028;-88
2023/08/07 07:39:25;;;;;;;0.30;0.30;;;;;;;13.51;88.93;100902.78;5180920;28;20052;-86
2023/08/07 07:42:15;;;;;;;0.65;0.65;;;;;;;13.50;88.99;100896.66;5190734;28;20040;-87
2023/08/07 07:45:06;;;;;;;0.20;0.20;;;;;;;13.62;88.44;100899.75;5195810;28;20041;-86
2023/08/07 07:47:57;;;;;;;0.30;0.30;;;;;;;13.71;86.81;100904.66;5184396;28;20052;-87
2023/08/07 07:50:48;;;;;;;0.30;0.30;;;;;;;13.61;87.38;100909.44;5208904;28;20032;-86
2023/08/07 07:53:39;;;;;;;0.75;0.75;;;;;;;13.71;86.84;100912.59;5196452;28;20075;-87
2023/08/07 07:56:29;;;;;;;0.30;0.30;;;;;;;13.73;87.46;100918.66;5202081;28;20348;-87
2023/08/07 07:59:20;;;;;;;0.20;0.20;;;;;;;13.71;87.61;100915.22;5191406;28;20503;-87
2023/08/07 08:02:11;;;;;;;0.50;0.50;;;;;;;13.81;87.15;100923.63;5177251;28;20041;-87
2023/08/07 08:05:02;;;;;;;3.10;0.77;;;;;;;13.86;86.32;100919.06;5179063;28;20075;-87
2023/08/07 08:07:53;;;;;;;0.40;0.40;;;;;;;13.81;86.89;100926.28;5205669;28;20033;-87
2023/08/07 08:10:47;;;;;;;4.18;1.52;;;;;;;13.78;86.74;100918.50;5192263;28;20068;-86
2023/08/07 08:13:40;;;;;;;1.35;1.25;;;;;;;13.79;86.28;100936.91;5196714;28;20377;-87
2023/08/07 08:16:32;;;;;;;0.47;0.47;;;;;;;13.79;86.35;100933.41;5197017;28;20040;-86
2023/08/07 08:19:22;;;;;;;0.85;0.85;;;;;;;13.89;85.81;100941.81;5195386;28;20055;-87
2023/08/07 08:22:13;;;;;;;0.68;0.68;;;;;;;13.88;85.45;100940.09;5208279;28;20086;-86
2023/08/07 08:25:04;;;;;;;0.65;0.65;;;;;;;13.91;85.46;100942.63;5195945;28;20025;-85
2023/08/07 08:27:55;;;;;;;4.07;1.13;;;;;;;14.08;86.12;100937.59;5193485;28;20092;-86
2023/08/07 08:30:46;;;;;;;0.30;0.30;;;;;;;14.05;85.73;100944.75;5175440;28;20024;-87
2023/08/07 08:33:37;;;;;;;0.20;0.20;;;;;;;14.16;86.53;100945.19;5181792;28;20041;-86
2023/08/07 08:36:27;;;;;;;0.68;0.68;;;;;;;14.24;85.07;100950.19;5192297;28;20040;-87
2023/08/07 08:39:18;;;;;;;1.05;0.95;;;;;;;14.27;85.31;100950.94;5184581;28;20496;-87
2023/08/07 08:42:13;;;;;;;0.60;0.60;;;;;;;14.38;84.24;100961.06;5208479;28;20064;-88
2023/08/07 08:45:05;;;;;;;1.55;1.15;;;;;;;14.43;82.73;100966.16;5185508;28;20349;-87
2023/08/07 08:48:02;;;;;;;0.30;0.30;;;;;;;14.46;83.07;100976.59;5203340;28;20443;-87
2023/08/07 08:50:54;;;;;;;1.60;1.50;;;;;;;14.41;84.10;100982.06;5179590;28;20029;-87
2023/08/07 08:53:49;;;;;;;0.50;0.50;;;;;;;14.54;84.15;100984.22;5189103;28;20186;-88
2023/08/07 08:56:39;;;;;;;1.77;1.05;;;;;;;14.57;83.30;100994.66;5229389;28;20264;-88
2023/08/07 08:59:31;;;;;;;0.47;0.47;;;;;;;14.57;83.28;100998.16;5219336;28;20078;-88
2023/08/07 09:02:22;;;;;;;0.60;0.60;;;;;;;14.70;84.28;100998.56;5185228;28;20041;-86
2023/08/07 09:05:19;;;;;;;0.55;0.55;;;;;;;14.84;83.99;100991.84;5203421;28;20114;-86
2023/08/07 09:08:10;;;;;;;0.30;0.30;;;;;;;14.90;81.67;101008.31;5181238;28;20052;-87
2023/08/07 09:11:02;;;;;;;0.40;0.40;;;;;;;14.84;81.68;100994.50;5215112;28;20342;-87
2023/08/07 09:13:54;;;;;;;0.30;0.30;;;;;;;14.89;81.73;101016.31;5220193;28;20040;-88
2023/08/07 09:16:48;;;;;;;0.75;0.75;;;;;;;15.09;81.37;101016.34;5201802;28;20047;-88
2023/08/07 09:19:38;;;;;;;;;;;;;;;15.06;80.15;101013.84;5187155;28;20029;-86
2023/08/07 09:22:29;;;;;;;2.97;1.30;;;;;;;14.98;78.85;101007.13;5187524;28;20454;-86
2023/08/07 09:25:31;;;;;;;3.17;1.23;;;;;;;15.13;79.32;101018.88;5198457;28;20033;-85
2023/08/07 09:28:21;;;;;;;0.90;0.75;;;;;;;15.11;78.43;101017.16;5213140;28;20565;-87
2023/08/07 09:31:15;;;;;;;0.52;0.52;;;;;;;15.13;78.65;101024.16;5215165;28;20040;-87
2023/08/07 09:34:05;;;;;;;0.30;0.30;;;;;;;15.24;77.52;101032.50;5206396;28;20591;-86
2023/08/07 09:36:56;;;;;;;0.60;0.60;;;;;;;15.19;76.30;101035.34;5181025;28;20037;-86
2023/08/07 09:39:47;;;;;;;0.40;0.40;;;;;;;15.29;77.13;101022.59;5196092;28;20056;-87
2023/08/07 09:42:38;;;;;;;0.20;0.20;;;;;;;15.37;76.72;101032.84;5197675;28;20033;-87
2023/08/07 09:45:30;;;;;;;0.95;0.90;;;;;;;15.47;75.66;101028.03;5188246;28;20037;-87
2023/08/07 09:48:25;;;;;;;0.40;0.40;;;;;;;15.45;74.72;101035.16;5201449;28;20037;-86
2023/08/07 09:51:16;;;;;;;0.63;0.63;;;;;;;15.50;73.78;101039.34;5192465;28;20037;-87
2023/08/07 09:54:07;;;;;;;0.35;0.35;;;;;;;15.57;74.74;101022.28;5196995;28;20025;-86
2023/08/07 09:56:58;;;;;;;0.38;0.38;;;;;;;15.57;74.51;101032.84;5195118;28;20027;-87
2023/08/07 09:59:50;;;;;;;0.35;0.35;;;;;;;15.65;74.67;101029.88;5197667;28;20037;-86
2023/08/07 10:02:44;;;;;;;1.30;1.20;;;;;;;15.73;72.52;101027.78;5198983;28;20094;-86
2023/08/07 10:05:35;;;;;;;0.57;0.55;;;;;;;15.78;73.14;101026.69;5202322;28;20109;-86
2023/08/07 10:08:26;;;;;;;0.60;0.60;;;;;;;15.88;73.22;101025.41;5196702;28;20037;-87
2023/08/07 10:11:17;;;;;;;0.30;0.30;;;;;;;15.87;71.05;101026.31;5194643;28;20025;-87
2023/08/07 10:14:08;;;;;;;0.20;0.20;;;;;;;16.07;70.39;101029.88;5198941;28;20036;-88
2023/08/07 10:16:59;;;;;;;3.00;1.27;;;;;;;16.04;69.46;101039.66;5203063;28;20075;-85
2023/08/07 10:19:53;;;;;;;1.15;0.75;;;;;;;16.11;67.23;101031.44;5210760;28;20523;-87
2023/08/07 10:22:44;;;;;;;0.20;0.20;;;;;;;16.10;67.07;101027.94;5179989;28;20057;-86
2023/08/07 10:25:39;;;;;;;0.22;0.22;;;;;;;16.22;67.22;101026.53;5207854;28;20045;-87
2023/08/07 10:28:32;;;;;;;0.35;0.35;;;;;;;16.36;67.84;101033.84;5223381;28;20025;-87
2023/08/07 10:31:24;;;;;;;0.70;0.70;;;;;;;16.30;67.38;101028.81;5197852;28;20053;-88
2023/08/07 10:34:15;;;;;;;0.75;0.75;;;;;;;16.39;67.09;101030.19;5200351;28;20031;-87
2023/08/07 10:37:07;;;;;;;0.40;0.40;;;;;;;16.38;65.32;101031.09;5196408;28;20300;-87
2023/08/07 10:40:03;;;;;;;0.50;0.50;;;;;;;16.34;66.42;101033.88;5198783;28;20091;-85
2023/08/07 10:42:54;;;;;;;0.20;0.20;;;;;;;16.40;68.76;101030.09;5192332;28;20033;-86
2023/08/07 10:45:45;;;;;;;0.30;0.30;;;;;;;16.47;67.09;101030.69;5186559;28;20065;-87
2023/08/07 10:48:40;;;;;;;0.57;0.55;;;;;;;16.53;66.95;101041.81;5182631;28;20033;-86
2023/08/07 10:51:31;;;;;;;0.30;0.30;;;;;;;16.55;65.50;101036.47;5210599;28;21800;-86
2023/08/07 10:54:24;;;;;;;0.45;0.38;;;;;;;16.56;63.08;101046.16;5194854;28;20246;-86
2023/08/07 10:57:17;;;;;;;0.40;0.40;;;;;;;16.72;62.64;101046.25;5199155;28;20508;-87
2023/08/07 11:00:12;;;;;;;0.30;0.30;;;;;;;16.78;62.72;101045.09;5190273;28;20917;-87
2023/08/07 11:03:03;;;;;;;2.63;1.17;;;;;;;16.75;62.04;101050.53;5197883;28;20033;-87
2023/08/07 11:05:58;;;;;;;0.20;0.20;;;;;;;16.76;62.51;101053.13;5183526;28;20048;-86
2023/08/07 11:08:50;;;;;;;0.40;0.40;;;;;;;16.85;63.26;101051.81;5214055;28;20037;-86
2023/08/07 11:11:42;;;;;;;0.47;0.47;;;;;;;16.93;62.48;101054.16;5187916;28;20037;-90
2023/08/07 11:14:33;;;;;;;0.22;0.22;;;;;;;17.01;62.14;101054.63;5197168;28;20043;-88
2023/08/07 11:17:25;;;;;;;0.20;0.20;;;;;;;17.02;60.95;101055.47;5183379;28;20044;-87
2023/08/07 11:20:16;;;;;;;0.20;0.20;;;;;;;17.01;62.64;101057.28;5188850;28;20065;-87
2023/08/07 11:23:07;;;;;;;3.10;0.93;;;;;;;17.13;62.05;101071.72;5191269;28;20091;-86
2023/08/07 11:25:58;;;;;;;2.92;0.65;;;;;;;17.23;58.05;101058.88;5189415;28;20024;-87
2023/08/07 11:28:49;;;;;;;0.32;0.32;;;;;;;17.24;59.24;101063.25;5185887;28;20428;-88
2023/08/07 11:31:40;;;;;;;0.32;0.32;;;;;;;17.32;57.08;101055.75;5185918;28;20037;-87
2023/08/07 11:34:31;;;;;;;12.75;2.30;;;;;;;17.31;58.91;101054.03;5195170;28;20068;-87
2023/08/07 11:37:22;;;;;;;0.50;0.50;;;;;;;17.40;59.13;101050.06;5183752;28;20044;-87
2023/08/07 11:40:13;;;;;;;0.80;0.80;;;;;;;17.39;58.65;101043.06;5189863;28;20038;-88
2023/08/07 11:43:04;;;;;;;1.08;0.70;;;;;;;17.50;57.25;101048.66;5183261;28;20133;-86
2023/08/07 11:45:56;;;;;;;0.20;0.20;;;;;;;17.65;57.06;101052.34;5187395;28;20343;-86
2023/08/07 11:48:47;;;;;;;0.30;0.30;;;;;;;17.69;55.76;101053.03;5188612;28;20116;-86
2023/08/07 11:51:38;;;;;;;0.32;0.32;;;;;;;17.75;55.80;101050.94;5186740;28;20029;-86
2023/08/07 11:54:29;;;;;;;0.55;0.55;;;;;;;17.91;55.14;101048.31;5185559;28;20029;-86
2023/08/07 11:57:20;;;;;;;0.20;0.20;;;;;;;17.93;55.22;101049.09;5189427;28;20347;-85
2023/08/07 12:00:14;;;;;;;0.50;0.50;;;;;;;18.06;54.07;101046.69;5190792;28;20514;-85
2023/08/07 12:03:26;;;;;;;0.47;0.47;;;;;;;18.06;55.71;101040.50;5205122;28;20060;-86
2023/08/07 12:06:17;;;;;;;1.63;1.23;;;;;;;18.27;53.84;101049.09;5202619;28;20025;-86
2023/08/07 12:09:12;;;;;;;1.33;0.57;;;;;;;18.34;53.68;101050.50;5191327;28;20592;-85
2023/08/07 12:12:03;;;;;;;0.20;0.20;;;;;;;18.48;52.93;101041.75;5181712;28;20029;-86
2023/08/07 12:14:54;;;;;;;0.20;0.20;;;;;;;18.48;54.14;101047.06;5189697;28;20119;-87
2023/08/07 12:17:46;;;;;;;0.30;0.30;;;;;;;18.39;50.73;101047.56;5203978;28;20022;-87
2023/08/07 12:20:37;;;;;;;0.30;0.30;;;;;;;18.50;51.31;101045.19;5202701;28;20128;-86
2023/08/07 12:23:27;;;;;;;0.40;0.40;;;;;;;18.54;49.78;101057.38;5201080;28;20037;-87
2023/08/07 12:26:18;;;;;;;0.50;0.50;;;;;;;18.51;52.65;101046.91;5191961;28;20075;-87
2023/08/07 12:29:09;;;;;;;0.47;0.47;;;;;;;18.47;53.70;101061.28;5191979;28;20032;-87
2023/08/07 12:32:02;;;;;;;2.90;1.38;;;;;;;18.61;54.09;101063.19;5188072;28;20064;-85
2023/08/07 12:34:53;;;;;;;0.50;0.50;;;;;;;18.64;51.90;101057.72;5185532;28;20025;-86
2023/08/07 12:37:44;;;;;;;0.70;0.70;;;;;;;18.72;52.33;101057.28;5189651;28;20025;-86
2023/08/07 12:40:36;;;;;;;2.72;1.73;;;;;;;18.94;49.85;101048.97;5199917;28;20408;-86
2023/08/07 12:43:27;;;;;;;2.50;1.20;;;;;;;19.00;48.62;101059.28;5199201;28;20052;-87
2023/08/07 12:46:18;;;;;;;0.32;0.32;;;;;;;18.96;49.72;101048.91;5189902;28;20028;-87
2023/08/07 12:49:09;;;;;;;0.43;0.40;;;;;;;19.15;50.75;101041.56;5192351;28;20030;-86
2023/08/07 12:52:00;;;;;;;1.15;1.13;;;;;;;19.34;49.21;101053.78;5199152;28;20044;-86
2023/08/07 12:54:51;;;;;;;0.30;0.30;;;;;;;19.41;52.51;101047.16;5185350;28;20032;-86
2023/08/07 12:57:42;;;;;;;0.30;0.30;;;;;;;19.64;50.61;101050.25;5214481;28;20610;-87
2023/08/07 13:00:33;;;;;;;1.25;1.05;;;;;;;19.75;50.66;101054.94;5187411;28;20044;-86
2023/08/07 13:03:24;;;;;;;0.30;0.30;;;;;;;19.80;48.95;101042.19;5182891;28;20037;-86
2023/08/07 13:06:15;;;;;;;0.30;0.30;;;;;;;19.89;48.10;101059.44;5199552;28;20199;-86
2023/08/07 13:09:05;;;;;;;2.45;1.45;;;;;;;19.98;47.87;101066.88;5197904;28;20028;-85
2023/08/07 13:11:56;;;;;;;0.40;0.40;;;;;;;19.98;48.87;101061.53;5193045;28;20051;-86
2023/08/07 13:14:47;;;;;;;1.65;1.33;;;;;;;20.18;48.91;101064.78;5184256;28;20033;-86
2023/08/07 13:17:38;;;;;;;0.40;0.40;;;;;;;20.08;49.95;101062.69;5193311;28;20087;-86